AirNav  
 
 1177 users online  

2NJ4 Six Flags Great Adventure Heliport
Jackson, New Jersey, USA

GOING TO JACKSON?


FAA INFORMATION EFFECTIVE 01 FEBRUARY 2018

Location

FAA Identifier: 2NJ4
Lat/Long: 40-08-46.1570N / 074-26-04.5420W
40-08.769283N / 074-26.075700W
40.1461547 / -74.4345950
(estimated)
Elevation: 120 ft. / 37 m (estimated)
Variation: 12W (1985)
From city: 12 miles W of JACKSON, NJ
Time zone: UTC -5 (UTC -4 during Daylight Saving Time)
Zip code: 08514

Heliport Operations

Heliport use: Private use. Permission required prior to landing
Activation date: 07/1990
Control tower: no
ARTCC: NEW YORK CENTER
FSS: MILLVILLE FLIGHT SERVICE STATION
Attendance: UNATNDD
Segmented circle: no

Heliport Communications

WX AWOS-AV at N12 (13 nm E): 122.8 (732-363-6471)
WX AWOS-3PT at BLM (14 nm E): 121.625 (732-938-3330)
WX AWOS-3PT at MJX (15 nm SE): 119.875 (732-797-2542)
WX ASOS at TTN (19 nm NW): 126.775 (609-538-8690)

Nearby radio navigation aids

VOR radial/distance  VOR name  Freq  Var
RBVr151/4.4ROBBINSVILLE VORTAC113.8010W
GXUr054/11.1MC GUIRE VORTAC110.6012W
COLr243/16.0COLTS NECK VOR/DME115.4011W
CYNr010/19.7COYLE VORTAC113.4010W
ARDr117/22.6YARDLEY VOR/DME108.2010W
PNEr092/(26.7)NORTH PHILADELPHIA VOR112.0010W
SBJr162/29.7SOLBERG VOR/DME112.9010W
CRIr232/37.3CANARSIE VOR/DME112.3011W

 
NDB name  Hdg/Dist  Freq  Var  ID
LAKEHURST334/7.639611WNEL -. . .-..
CHATHAM193/35.725413WCAT -.-. .- -
BRIDGE237/35.741412WOGY --- --. -.--
AMBLER100/39.027512WING .. -. --.

Heliport Services

Runway Information

Helipad H1

Dimensions: 94 x 94 ft. / 29 x 29 m
Surface: turf, in fair condition
Traffic pattern: leftleft

Heliport Ownership and Management from official FAA records

Ownership: Privately-owned
Owner: SIX FLAGS GREAT ADVENTURE
P.O. BOX 120
JACKSON, NJ 08572
Phone 732-928-2000
Manager: EDWARD ZAKAR
RT 537
JACKSON, NJ 08527
Phone 732-928-2000
X2602.

Additional Remarks

A520H1 30' TREES 600' ALL QUADRANTS.

Instrument Procedures

There are no published instrument procedures at 2NJ4.

Some nearby airports with instrument procedures:

KNEL - Lakehurst Maxfield Field Airport (8 nm SE)
N87 - Trenton-Robbinsville Airport (9 nm NW)
KWRI - McGuire Field (Joint Base Mc Guire Dix Lakehurst) Airport (11 nm SW)
3N6 - Old Bridge Airport (12 nm N)
N12 - Lakewood Airport (13 nm E)
KBLM - Monmouth Executive Airport (14 nm E)
KMJX - Ocean County Airport (15 nm SE)
39N - Princeton Airport (18 nm NW)
KTTN - Trenton Mercer Airport (19 nm NW)
 
Loc | Ops | Rwys | IFR | FBO | Links
Com | Nav | Svcs | Stats | Notes

AirNav Hotels Sweepstakes
 
Area around 2NJ4 (Six Flags Great Adventure Heliport)
 
Road maps at: MapQuest Bing Google
 
Aerial photo
No photo
 
Sectional chart

 
Airport distance calculator
Flying to Six Flags Great Adventure Heliport? Find the distance to fly.

From to 2NJ4

Sunrise and sunset
Times for 25-Feb-2018
 Local
(UTC-5)
 Zulu
(UTC)
Morning civil twilight06:1111:11
Sunrise06:3811:38
Sunset17:4422:44
Evening civil twilight18:1123:11

Current date and time
Zulu (UTC)  25-Feb-2018 22:21:24
Local (UTC-5)  25-Feb-2018 17:21:24
 
METAR
KNEL 
9nm SE 
252200Z AUTO VRB03KT 3/4SM OVC004 08/08 A2998 RMK AO2 SFC VIS 7 SLP150 T00780078 PNO $
KWRI 
10nm SW 
252156Z AUTO 36005KT 10SM OVC004 08/07 A2996 RMK AO2 CIG 003 RWY18 SLP146 T00750069
KBLM 
15nm E 
AWOS-3 121.625 732-938-3330
252156Z AUTO 34006KT 6SM BR OVC003 06/06 A2999 RMK AO2 SLP159 T00610056
KMJX 
15nm SE 
AWOS-3 119.875 732-244-4450
252056Z AUTO 31006KT 10SM OVC004 08/07 A2999 RMK AO2 SLP160 6//// T00780072 53028 PNO $
KTTN 
19nm NW 
ASOS 133.70 609-538-8690
252153Z 00000KT 6SM BR OVC004 07/07 A2997 RMK AO2 SLP144 T00720067
TAF
KWRI 
10nm SW 
252017Z 2520/2624 03006KT 9999 OVC004 510202 QNH2991INS BECMG 2523/2601 VRB06KT 9999 BKN010 OVC100 QNH2993INS BECMG 2601/2603 31006KT 9999 FEW012 BKN150 QNH2995INS BECMG 2617/2618 33006KT 9999 SCT150 QNH3009INS TX11/2521Z TN05/2610Z
KTTN 
19nm NW 
251944Z 2520/2618 02005KT P6SM VCSH OVC004 FM252100 VRB03KT P6SM OVC008 FM252300 VRB02KT P6SM OVC020 FM260800 VRB02KT P6SM BKN050 TEMPO 2608/2611 3SM BR FM261300 31006KT P6SM SCT210
NOTAMs
Click for the latest NOTAMs
NOTAMs are issued by the DoD/FAA and will open in a separate window not controlled by AirNav.

 

 
 

Would you like to see your business listed on this page?

 If your business provides an interesting product or service to pilots, flight crews, aircraft, or users of the Six Flags Great Adventure Heliport, you should consider listing it here.  To start the listing process, click on the button below
 
Add a business
 

Other Pages about Six Flags Great Adventure Heliport

Update a link
 
Copyright © AirNav, LLC. All rights reserved. Privacy Policy  Contact